Time;durP1;ratioP1;P1;durP2;ratioP2;P2;SDS_P1;SDS_P2;PMS_P1;PMS_P2;Temp;Humidity;BMP_temperature;BMP_pressure;BME280_temperature;BME280_humidity;BME280_pressure;Samples;Min_cycle;Max_cycle;Signal;HPM_P1;HPM_P2
2023/04/06 00:01:49;;;;;;;12.13;5.22;;;;;;;4.22;49.81;100674.50;10152180;29;20074;-64
2023/04/06 00:06:51;;;;;;;8.45;4.20;;;;;;;4.16;50.30;100662.56;10148617;29;20060;-64
2023/04/06 00:11:52;;;;;;;8.50;3.80;;;;;;;4.02;50.49;100676.16;10148030;29;20148;-62
2023/04/06 00:16:55;;;;;;;6.32;2.97;;;;;;;3.80;50.86;100661.13;10146657;29;20457;-64
2023/04/06 00:21:56;;;;;;;5.78;3.13;;;;;;;3.79;50.95;100665.56;10129480;29;20052;-62
2023/04/06 00:26:58;;;;;;;6.28;2.95;;;;;;;3.73;51.10;100661.63;10146458;29;20048;-62
2023/04/06 00:31:59;;;;;;;7.03;3.72;;;;;;;3.74;50.60;100657.13;10152365;29;20040;-63
2023/04/06 00:37:01;;;;;;;5.60;3.17;;;;;;;3.70;50.84;100647.72;10148317;29;20083;-62
2023/04/06 00:42:10;;;;;;;5.47;3.00;;;;;;;3.69;51.22;100638.91;10152225;29;20131;-64
2023/04/06 00:47:12;;;;;;;9.60;4.50;;;;;;;3.62;51.01;100650.16;10129015;29;20040;-63
2023/04/06 00:52:14;;;;;;;7.03;3.50;;;;;;;3.56;50.99;100639.03;10146913;29;20148;-63
2023/04/06 00:57:16;;;;;;;3.88;2.60;;;;;;;3.53;51.11;100633.13;10147959;29;20041;-63
2023/04/06 01:02:18;;;;;;;5.00;2.60;;;;;;;3.48;51.69;100635.31;10145581;29;20099;-62
2023/04/06 01:07:20;;;;;;;5.53;3.05;;;;;;;3.51;51.06;100625.25;10144422;29;20112;-63
2023/04/06 01:12:21;;;;;;;6.22;3.15;;;;;;;3.52;51.74;100623.47;10149718;29;20049;-62
2023/04/06 01:17:22;;;;;;;7.07;4.53;;;;;;;3.44;51.80;100620.59;10135128;29;20729;-63
2023/04/06 01:22:24;;;;;;;8.68;4.97;;;;;;;3.33;52.14;100622.28;10140446;29;21152;-62
2023/04/06 01:27:27;;;;;;;18.38;7.57;;;;;;;3.28;52.09;100619.16;10153523;29;20055;-64
2023/04/06 01:32:29;;;;;;;26.35;10.55;;;;;;;3.31;52.09;100618.91;10149086;29;20381;-65
2023/04/06 01:37:32;;;;;;;13.88;7.07;;;;;;;3.30;52.11;100611.91;10146597;29;20107;-63
2023/04/06 01:42:33;;;;;;;17.27;7.50;;;;;;;3.25;51.98;100603.44;10146182;29;20091;-62
2023/04/06 01:47:35;;;;;;;8.10;4.63;;;;;;;3.24;51.95;100607.09;10144498;29;20074;-63
2023/04/06 01:52:37;;;;;;;7.13;3.53;;;;;;;3.20;52.54;100599.47;10144684;29;20048;-62
2023/04/06 01:57:39;;;;;;;4.43;2.90;;;;;;;3.13;52.87;100609.75;10146953;29;20047;-63
2023/04/06 02:02:40;;;;;;;7.38;3.83;;;;;;;2.98;53.07;100602.03;10144309;29;20543;-64
2023/04/06 02:07:42;;;;;;;6.70;3.17;;;;;;;2.89;52.87;100607.22;10154298;29;20068;-62
2023/04/06 02:12:43;;;;;;;4.65;2.92;;;;;;;2.90;53.26;100604.44;10129124;29;20048;-63
2023/04/06 02:17:44;;;;;;;8.25;3.65;;;;;;;2.89;53.59;100592.13;10149435;29;20594;-62
2023/04/06 02:22:46;;;;;;;5.65;3.03;;;;;;;2.81;53.42;100588.41;10155147;29;20040;-63
2023/04/06 02:27:48;;;;;;;6.15;3.55;;;;;;;2.60;54.17;100596.19;10154257;29;20048;-63
2023/04/06 02:32:50;;;;;;;7.07;3.55;;;;;;;2.57;54.40;100586.69;10153274;29;20044;-62
2023/04/06 02:37:51;;;;;;;9.48;3.95;;;;;;;2.54;54.08;100587.75;10156400;29;20103;-62
2023/04/06 02:42:53;;;;;;;6.63;3.35;;;;;;;2.59;54.34;100587.41;10144877;29;20048;-61
2023/04/06 02:47:54;;;;;;;5.70;3.30;;;;;;;2.57;54.17;100597.28;10144614;29;20097;-62
2023/04/06 02:52:55;;;;;;;5.15;3.28;;;;;;;2.64;53.94;100593.19;10158335;29;20040;-64
2023/04/06 02:57:57;;;;;;;6.38;3.72;;;;;;;2.67;53.95;100592.13;10150552;29;20052;-64
2023/04/06 03:02:58;;;;;;;6.18;2.65;;;;;;;2.67;54.39;100597.44;10152235;29;20068;-61
2023/04/06 03:08:00;;;;;;;5.88;3.35;;;;;;;2.58;53.94;100591.00;10147411;29;20417;-63
2023/04/06 03:13:01;;;;;;;8.10;3.33;;;;;;;2.55;54.14;100589.44;10139954;29;20052;-62
2023/04/06 03:18:02;;;;;;;7.40;2.40;;;;;;;2.52;54.44;100594.13;10145426;29;20056;-63
2023/04/06 03:23:04;;;;;;;7.70;3.58;;;;;;;2.49;54.92;100591.72;10135416;29;20141;-62
2023/04/06 03:28:05;;;;;;;6.38;4.18;;;;;;;2.51;54.81;100593.31;10154040;29;20523;-63
2023/04/06 03:33:07;;;;;;;6.18;2.97;;;;;;;2.47;54.65;100596.28;10151894;29;20095;-63
2023/04/06 03:38:08;;;;;;;4.10;2.75;;;;;;;2.38;54.91;100592.53;10154013;29;20071;-63
2023/04/06 03:43:10;;;;;;;6.72;3.30;;;;;;;2.38;54.82;100588.06;10148795;29;20076;-64
2023/04/06 03:48:11;;;;;;;6.10;3.20;;;;;;;2.35;55.12;100585.69;10151583;29;20397;-62
2023/04/06 03:53:12;;;;;;;5.22;3.10;;;;;;;2.33;54.96;100594.69;10152597;29;20079;-63
2023/04/06 03:58:14;;;;;;;6.13;2.80;;;;;;;2.29;54.92;100594.09;10154122;29;20515;-64
2023/04/06 04:03:15;;;;;;;8.25;3.53;;;;;;;2.23;54.79;100591.06;10130936;29;20075;-63
2023/04/06 04:08:17;;;;;;;8.48;3.60;;;;;;;2.23;54.98;100599.84;10150068;29;20519;-64
2023/04/06 04:13:19;;;;;;;7.43;4.57;;;;;;;2.25;55.90;100605.03;10151391;29;20067;-64
2023/04/06 04:18:20;;;;;;;8.07;3.90;;;;;;;2.22;55.22;100606.13;10146736;29;20048;-62
2023/04/06 04:23:22;;;;;;;8.85;3.75;;;;;;;2.23;55.15;100613.09;10129462;29;20115;-64
2023/04/06 04:28:23;;;;;;;7.38;3.35;;;;;;;2.23;55.59;100614.91;10134003;29;20063;-65
2023/04/06 04:33:25;;;;;;;5.30;3.35;;;;;;;2.26;55.04;100625.31;10155079;29;20067;-63
2023/04/06 04:38:26;;;;;;;8.65;4.00;;;;;;;2.24;55.04;100619.28;10141025;29;20061;-65
2023/04/06 04:43:27;;;;;;;5.75;3.55;;;;;;;2.28;55.45;100618.09;10145656;29;20512;-63
2023/04/06 04:48:31;;;;;;;8.50;4.25;;;;;;;2.28;56.19;100618.09;10143080;29;20048;-63
2023/04/06 04:53:33;;;;;;;6.20;3.78;;;;;;;2.31;56.06;100620.47;10138506;29;20132;-66
2023/04/06 04:58:34;;;;;;;7.90;3.90;;;;;;;2.36;56.23;100615.69;10133225;29;20068;-66
2023/04/06 05:03:38;;;;;;;10.15;4.78;;;;;;;2.37;55.46;100617.41;10139638;29;20075;-67
2023/04/06 05:08:41;;;;;;;9.13;4.70;;;;;;;2.36;55.82;100626.31;10141056;29;20048;-68
2023/04/06 05:13:42;;;;;;;9.75;4.60;;;;;;;2.36;56.17;100619.19;10142167;29;20072;-66
2023/04/06 05:18:43;;;;;;;7.97;4.72;;;;;;;2.37;56.41;100628.84;10139446;29;20104;-66
2023/04/06 05:23:45;;;;;;;10.65;6.90;;;;;;;2.34;55.98;100626.41;10142472;29;20131;-66
2023/04/06 05:28:46;;;;;;;11.02;6.22;;;;;;;2.43;56.46;100627.53;10140047;29;20127;-68
2023/04/06 05:33:48;;;;;;;8.18;4.72;;;;;;;2.46;56.10;100626.44;10131864;29;20575;-66
2023/04/06 05:38:52;;;;;;;11.73;5.65;;;;;;;2.53;56.83;100620.56;10128274;29;20068;-66
2023/04/06 05:43:53;;;;;;;10.98;5.53;;;;;;;2.63;56.40;100627.81;10141900;29;20473;-66
2023/04/06 05:48:55;;;;;;;15.85;5.47;;;;;;;2.68;56.76;100636.25;10140434;29;20128;-66
2023/04/06 05:53:57;;;;;;;10.18;6.25;;;;;;;2.82;55.76;100633.38;10143879;29;20076;-64
2023/04/06 05:58:59;;;;;;;11.68;5.63;;;;;;;2.98;56.63;100627.72;10140174;29;20044;-67
2023/04/06 06:04:01;;;;;;;14.75;6.55;;;;;;;3.12;56.13;100638.13;10123145;29;20059;-68
2023/04/06 06:09:03;;;;;;;11.85;6.68;;;;;;;3.25;56.26;100640.63;10140764;29;20516;-65
2023/04/06 06:14:05;;;;;;;12.13;6.30;;;;;;;3.40;55.58;100641.25;10129181;29;20053;-72
2023/04/06 06:19:06;;;;;;;11.60;6.57;;;;;;;3.57;55.57;100645.19;10128857;29;20056;-72
2023/04/06 06:24:09;;;;;;;9.82;6.55;;;;;;;3.74;56.09;100636.69;10136275;29;20693;-71
2023/04/06 06:29:10;;;;;;;9.35;5.68;;;;;;;4.01;55.82;100638.09;10139169;29;20080;-68
2023/04/06 06:34:12;;;;;;;12.48;6.82;;;;;;;4.21;55.15;100633.78;10138488;29;20060;-67
2023/04/06 06:39:14;;;;;;;11.70;6.22;;;;;;;4.42;55.40;100632.94;10138550;29;20048;-68
2023/04/06 06:44:16;;;;;;;12.15;6.82;;;;;;;4.63;55.30;100635.59;10141510;29;20065;-68
2023/04/06 06:49:18;;;;;;;9.80;6.93;;;;;;;4.83;55.19;100628.56;10146556;29;20048;-71
2023/04/06 06:54:20;;;;;;;13.20;7.47;;;;;;;4.91;55.11;100626.94;10141265;29;20076;-70
2023/04/06 06:59:21;;;;;;;11.52;7.47;;;;;;;5.03;55.03;100629.50;10135478;29;20051;-70
2023/04/06 07:04:23;;;;;;;11.02;7.25;;;;;;;5.15;55.05;100631.09;10144101;29;20091;-69
2023/04/06 07:09:26;;;;;;;15.63;7.68;;;;;;;5.32;54.20;100627.81;10141398;29;20055;-69
2023/04/06 07:14:27;;;;;;;15.13;7.60;;;;;;;5.56;54.33;100619.44;10145827;29;20063;-69
2023/04/06 07:19:29;;;;;;;12.65;6.97;;;;;;;5.71;54.03;100614.56;10147959;29;20056;-69
2023/04/06 07:24:30;;;;;;;15.50;7.25;;;;;;;5.80;54.14;100618.22;10146713;29;20048;-67
2023/04/06 07:29:31;;;;;;;13.85;7.05;;;;;;;6.06;54.09;100618.59;10142938;29;20048;-66
2023/04/06 07:34:33;;;;;;;14.68;8.25;;;;;;;6.27;53.05;100614.91;10142571;29;20466;-67
2023/04/06 07:39:34;;;;;;;25.73;8.48;;;;;;;6.46;53.52;100614.91;10145419;29;20107;-66
2023/04/06 07:44:36;;;;;;;9.82;7.28;;;;;;;6.83;53.31;100618.59;10140708;29;20040;-67
2023/04/06 07:49:37;;;;;;;13.80;7.20;;;;;;;6.97;52.48;100614.63;10141028;29;20115;-67
2023/04/06 07:54:41;;;;;;;13.70;7.53;;;;;;;7.11;52.11;100614.16;10130989;29;20100;-64
2023/04/06 07:59:42;;;;;;;16.73;8.20;;;;;;;7.31;51.46;100610.41;10145799;29;20052;-66
2023/04/06 08:04:44;;;;;;;16.17;8.48;;;;;;;7.53;51.26;100611.00;10140763;29;20061;-67
2023/04/06 08:09:46;;;;;;;13.88;8.57;;;;;;;7.80;50.63;100614.63;10140860;29;20057;-66
2023/04/06 08:14:48;;;;;;;15.77;8.23;;;;;;;7.98;49.55;100609.28;10137513;29;20135;-66
2023/04/06 08:19:49;;;;;;;13.65;8.05;;;;;;;8.11;49.22;100610.56;10142483;29;20127;-69
2023/04/06 08:24:51;;;;;;;14.35;8.25;;;;;;;8.36;48.54;100610.78;10144214;29;20623;-66
2023/04/06 08:29:52;;;;;;;15.30;8.27;;;;;;;8.45;47.59;100609.03;10140733;29;20045;-67
2023/04/06 08:34:54;;;;;;;9.98;7.32;;;;;;;8.76;47.17;100600.56;10142668;29;20068;-65
2023/04/06 08:39:57;;;;;;;11.43;7.60;;;;;;;8.94;46.56;100601.31;10141582;29;20063;-65
2023/04/06 08:44:59;;;;;;;11.30;6.85;;;;;;;9.16;45.79;100601.78;10133796;29;20122;-66
2023/04/06 08:50:04;;;;;;;13.32;7.82;;;;;;;9.24;45.36;100600.00;10144261;29;20076;-66
2023/04/06 08:55:05;;;;;;;13.52;7.30;;;;;;;9.44;44.74;100595.19;10143836;29;20166;-68
2023/04/06 09:00:09;;;;;;;12.02;8.32;;;;;;;9.52;44.23;100589.84;10141533;29;20061;-68
2023/04/06 09:05:12;;;;;;;11.70;7.55;;;;;;;9.79;43.85;100589.75;10142174;29;20044;-69
2023/04/06 09:10:15;;;;;;;10.52;7.03;;;;;;;9.96;43.80;100596.00;10144028;29;20048;-70
2023/04/06 09:15:21;;;;;;;10.52;6.40;;;;;;;10.11;42.61;100589.78;10140869;29;20059;-69
2023/04/06 09:20:27;;;;;;;13.15;7.95;;;;;;;10.24;42.06;100591.13;10142660;29;20048;-71
2023/04/06 09:25:31;;;;;;;12.05;7.43;;;;;;;10.60;41.68;100580.03;10124772;29;20111;-70
2023/04/06 09:30:32;;;;;;;9.77;6.28;;;;;;;10.79;40.81;100579.69;10146717;29;20183;-68
2023/04/06 09:35:33;;;;;;;10.82;7.20;;;;;;;11.01;40.91;100578.09;10127152;29;20119;-68
2023/04/06 09:40:35;;;;;;;12.88;7.10;;;;;;;11.23;40.51;100565.72;10138358;29;20048;-69
2023/04/06 09:45:36;;;;;;;13.50;6.60;;;;;;;11.48;40.02;100557.56;10134198;29;20132;-70
2023/04/06 09:50:38;;;;;;;12.05;6.90;;;;;;;11.65;39.78;100559.13;10144294;29;20044;-69
2023/04/06 09:55:42;;;;;;;12.38;6.38;;;;;;;11.87;39.13;100557.47;10149852;29;20086;-71
2023/04/06 10:00:58;;;;;;;12.05;6.53;;;;;;;11.99;38.70;100547.16;10140752;29;20045;-71
2023/04/06 10:06:05;;;;;;;12.20;6.43;;;;;;;12.44;38.36;100544.53;10122173;29;20055;-70
2023/04/06 10:11:09;;;;;;;11.77;6.65;;;;;;;12.68;38.36;100544.31;10141540;29;20056;-70
2023/04/06 10:16:14;;;;;;;12.05;6.13;;;;;;;12.94;37.25;100542.19;10135592;29;20091;-70
2023/04/06 10:21:20;;;;;;;12.88;6.53;;;;;;;13.03;37.05;100535.66;10146115;29;20155;-70
2023/04/06 10:26:22;;;;;;;10.90;6.10;;;;;;;13.06;36.70;100532.59;10131420;29;20104;-71
2023/04/06 10:31:26;;;;;;;11.45;6.20;;;;;;;13.32;36.53;100540.19;10128266;29;20044;-69
2023/04/06 10:36:32;;;;;;;12.07;6.50;;;;;;;13.79;35.84;100536.16;10135011;29;20112;-70
2023/04/06 10:41:46;;;;;;;11.02;6.25;;;;;;;14.32;35.54;100522.28;10143744;29;20077;-70
2023/04/06 10:47:02;;;;;;;12.45;6.95;;;;;;;15.02;34.46;100525.03;10150390;29;20052;-70
2023/04/06 10:52:05;;;;;;;10.95;6.63;;;;;;;14.98;33.85;100510.22;10116414;29;20780;-69
2023/04/06 10:57:07;;;;;;;14.13;6.60;;;;;;;15.06;33.71;100515.47;10143809;29;20081;-69
2023/04/06 11:02:08;;;;;;;10.02;5.57;;;;;;;15.21;33.16;100499.91;10146440;29;20072;-69
2023/04/06 11:07:10;;;;;;;15.38;7.30;;;;;;;15.36;32.63;100498.91;10152869;29;20056;-70
2023/04/06 11:12:21;;;;;;;12.93;6.65;;;;;;;15.49;32.47;100498.94;10153278;29;20078;-70
2023/04/06 11:17:26;;;;;;;9.82;5.82;;;;;;;15.70;32.26;100492.53;10134641;29;20104;-69
2023/04/06 11:22:28;;;;;;;10.68;6.15;;;;;;;15.43;31.95;100497.88;10140378;29;20427;-69
2023/04/06 11:27:31;;;;;;;10.75;6.43;;;;;;;15.73;31.96;100477.75;10140327;29;20048;-69
2023/04/06 11:32:41;;;;;;;13.48;6.65;;;;;;;15.93;31.54;100475.06;10116807;29;20430;-69
2023/04/06 11:37:43;;;;;;;12.23;6.80;;;;;;;16.14;31.24;100465.91;10145317;29;20052;-69
2023/04/06 11:42:52;;;;;;;16.15;7.38;;;;;;;16.08;31.04;100469.44;10136120;29;20173;-69
2023/04/06 11:47:59;;;;;;;12.52;6.53;;;;;;;16.28;30.47;100466.72;10142918;29;20052;-69
2023/04/06 11:53:02;;;;;;;12.48;6.70;;;;;;;16.10;30.31;100462.75;10142973;29;20047;-71
2023/04/06 11:58:04;;;;;;;18.73;6.57;;;;;;;16.17;30.37;100460.03;10148279;29;20734;-72
2023/04/06 12:03:05;;;;;;;13.85;6.65;;;;;;;16.36;30.05;100456.47;10150803;29;20044;-70
2023/04/06 12:08:07;;;;;;;13.68;6.75;;;;;;;16.30;30.24;100449.19;10143690;29;20131;-69
2023/04/06 12:13:08;;;;;;;13.60;7.65;;;;;;;16.32;29.91;100455.22;10149138;29;20059;-69
2023/04/06 12:18:10;;;;;;;12.18;7.47;;;;;;;16.49;29.30;100454.75;10118521;29;20526;-69
2023/04/06 12:23:11;;;;;;;13.60;6.80;;;;;;;16.42;29.55;100447.47;10136899;29;20040;-70
2023/04/06 12:28:13;;;;;;;14.05;7.05;;;;;;;16.45;29.57;100438.91;10139548;29;20558;-70
2023/04/06 12:33:14;;;;;;;20.88;7.82;;;;;;;16.80;29.24;100430.44;10138420;29;20075;-71
2023/04/06 12:38:16;;;;;;;24.48;7.60;;;;;;;16.49;29.33;100431.19;10123415;29;20075;-72
2023/04/06 12:43:18;;;;;;;14.50;7.22;;;;;;;16.85;29.05;100432.56;10140016;29;20055;-72
2023/04/06 12:48:19;;;;;;;11.68;6.65;;;;;;;17.03;28.99;100426.41;10146900;29;20101;-73
2023/04/06 12:53:21;;;;;;;16.35;7.18;;;;;;;17.11;28.58;100419.91;10130669;29;20044;-72
2023/04/06 12:58:23;;;;;;;14.02;6.85;;;;;;;17.06;28.43;100417.81;10144394;29;20753;-72
2023/04/06 13:03:24;;;;;;;14.27;7.68;;;;;;;17.14;28.00;100420.31;10137645;29;20131;-72
2023/04/06 13:08:27;;;;;;;13.45;7.20;;;;;;;17.20;27.69;100415.88;10139913;29;20107;-69
2023/04/06 13:13:29;;;;;;;9.43;5.97;;;;;;;17.25;27.58;100410.63;10140427;29;20199;-71
2023/04/06 13:18:32;;;;;;;11.52;5.68;;;;;;;16.99;27.07;100407.00;10137599;29;20056;-71
2023/04/06 13:23:34;;;;;;;11.85;5.80;;;;;;;16.87;26.75;100402.47;10137217;29;20575;-71
2023/04/06 13:28:38;;;;;;;13.90;6.65;;;;;;;16.58;27.02;100402.75;10130605;29;21426;-71
2023/04/06 13:33:40;;;;;;;13.57;6.15;;;;;;;16.58;27.36;100391.06;10138590;29;20052;-71
2023/04/06 13:38:42;;;;;;;9.15;4.55;;;;;;;16.66;27.27;100391.66;10131109;29;20051;-71
2023/04/06 13:43:43;;;;;;;8.70;4.88;;;;;;;16.82;26.82;100390.41;10134286;29;20407;-70
2023/04/06 13:48:45;;;;;;;11.38;5.65;;;;;;;16.92;26.93;100389.91;10116830;29;20663;-70
2023/04/06 13:53:46;;;;;;;9.38;4.88;;;;;;;17.05;26.93;100386.28;10139162;29;20087;-71
2023/04/06 13:58:47;;;;;;;9.18;4.90;;;;;;;17.41;27.03;100387.53;10144057;29;20512;-70
2023/04/06 14:03:49;;;;;;;10.25;5.13;;;;;;;17.50;26.72;100372.63;10126060;29;20135;-68
2023/04/06 14:08:51;;;;;;;10.05;5.65;;;;;;;17.60;26.58;100372.94;10139645;29;20076;-70
2023/04/06 14:13:53;;;;;;;12.85;5.95;;;;;;;17.74;26.35;100372.84;10143310;29;20044;-69
2023/04/06 14:18:58;;;;;;;7.57;5.15;;;;;;;17.83;26.31;100371.47;10130807;29;20056;-70
2023/04/06 14:24:00;;;;;;;8.32;5.57;;;;;;;17.68;26.93;100371.00;10146956;29;20818;-70
2023/04/06 14:29:02;;;;;;;10.60;5.88;;;;;;;17.73;26.63;100365.72;10147403;29;20079;-70
2023/04/06 14:34:03;;;;;;;8.20;4.80;;;;;;;17.53;26.39;100364.00;10144756;29;20131;-61
2023/04/06 14:39:06;;;;;;;8.65;4.82;;;;;;;17.22;26.69;100367.59;10136710;29;20087;-65
2023/04/06 14:44:11;;;;;;;9.20;4.60;;;;;;;17.40;26.44;100364.13;10142702;29;20466;-62
2023/04/06 14:49:13;;;;;;;7.60;4.57;;;;;;;17.74;26.65;100349.19;10138635;29;20056;-62
2023/04/06 14:54:17;;;;;;;8.93;4.75;;;;;;;17.47;26.75;100356.75;10140870;29;20097;-63
2023/04/06 14:59:18;;;;;;;5.07;3.53;;;;;;;17.49;26.60;100351.09;10139295;29;20139;-63
2023/04/06 15:04:20;;;;;;;10.55;4.85;;;;;;;17.33;26.57;100352.47;10145179;29;20060;-63
2023/04/06 15:09:22;;;;;;;7.50;4.00;;;;;;;17.15;26.59;100345.06;10145578;29;20059;-72
2023/04/06 15:14:23;;;;;;;7.60;4.30;;;;;;;17.11;26.68;100341.13;10143803;29;20139;-71
2023/04/06 15:19:24;;;;;;;7.40;4.32;;;;;;;17.04;26.71;100343.88;10136963;29;20134;-71
2023/04/06 15:24:26;;;;;;;5.65;3.60;;;;;;;16.87;26.89;100340.84;10136899;29;20045;-71
2023/04/06 15:29:27;;;;;;;8.88;4.13;;;;;;;16.64;26.69;100347.63;10137748;29;20120;-71
2023/04/06 15:34:32;;;;;;;6.18;3.85;;;;;;;16.59;26.95;100344.72;10135026;29;20492;-68
2023/04/06 15:39:33;;;;;;;8.15;4.57;;;;;;;16.64;26.94;100341.34;10129226;29;20052;-68
2023/04/06 15:44:35;;;;;;;10.63;4.30;;;;;;;16.60;26.77;100338.25;10150225;29;20095;-66
2023/04/06 15:49:36;;;;;;;8.55;4.30;;;;;;;16.50;26.97;100351.44;10149173;29;20071;-68
2023/04/06 15:54:39;;;;;;;7.93;4.07;;;;;;;16.42;27.39;100347.09;10147915;29;20040;-67
2023/04/06 15:59:41;;;;;;;5.63;3.25;;;;;;;16.38;27.34;100343.13;10144307;29;20067;-67
2023/04/06 16:04:42;;;;;;;8.70;3.85;;;;;;;16.38;27.04;100342.31;10130083;29;20040;-68
2023/04/06 16:09:44;;;;;;;8.27;4.88;;;;;;;16.47;27.35;100332.88;10145731;29;20059;-67
2023/04/06 16:14:45;;;;;;;7.47;3.88;;;;;;;16.34;27.35;100343.78;10145352;29;20075;-67
2023/04/06 16:19:48;;;;;;;6.65;3.90;;;;;;;15.94;27.52;100347.44;10142560;29;20044;-68
2023/04/06 16:24:50;;;;;;;6.57;2.88;;;;;;;15.93;27.54;100347.66;10143509;29;20440;-68
2023/04/06 16:29:51;;;;;;;3.85;3.00;;;;;;;15.69;27.48;100341.81;10148144;29;20064;-67
2023/04/06 16:34:52;;;;;;;5.18;2.58;;;;;;;15.66;27.58;100342.25;10146229;29;20095;-67
2023/04/06 16:39:54;;;;;;;6.05;2.35;;;;;;;15.54;27.91;100361.00;10147903;29;20111;-68
2023/04/06 16:44:55;;;;;;;8.25;2.42;;;;;;;15.44;28.07;100361.41;10140176;29;20048;-68
2023/04/06 16:49:57;;;;;;;3.60;2.38;;;;;;;15.32;28.51;100352.22;10146267;29;20084;-68
2023/04/06 16:55:19;;;;;;;6.82;2.83;;;;;;;15.45;28.60;100340.56;10141766;29;20527;-67
2023/04/06 17:00:20;;;;;;;8.00;2.47;;;;;;;15.37;28.81;100335.34;10145535;29;20052;-67
2023/04/06 17:05:25;;;;;;;6.15;2.72;;;;;;;15.36;28.98;100348.03;10139028;29;20072;-67
2023/04/06 17:10:26;;;;;;;6.55;2.70;;;;;;;15.18;29.54;100345.13;10141715;29;20044;-67
2023/04/06 17:15:42;;;;;;;6.10;3.92;;;;;;;15.00;30.11;100353.84;10142759;29;20056;-68
2023/04/06 17:20:45;;;;;;;6.32;3.65;;;;;;;14.90;30.25;100346.13;10139400;29;20036;-67
2023/04/06 17:25:46;;;;;;;6.35;2.75;;;;;;;14.59;30.79;100352.06;10143501;29;20103;-70
2023/04/06 17:30:48;;;;;;;4.75;2.67;;;;;;;14.63;30.94;100359.59;10176340;29;20075;-69
2023/04/06 17:35:49;;;;;;;4.32;2.45;;;;;;;14.64;31.15;100365.81;10178531;29;20052;-69
2023/04/06 17:40:51;;;;;;;5.90;2.20;;;;;;;14.59;31.04;100358.31;10178304;28;20085;-69
2023/04/06 17:45:53;;;;;;;4.90;2.10;;;;;;;14.52;31.21;100359.28;10183349;28;20056;-69
2023/04/06 17:50:54;;;;;;;3.03;1.90;;;;;;;14.41;31.67;100366.91;10153163;29;20504;-69
2023/04/06 17:55:55;;;;;;;6.55;1.90;;;;;;;14.07;32.30;100370.50;10166831;29;20397;-71
2023/04/06 18:00:57;;;;;;;5.53;2.33;;;;;;;13.94;32.76;100381.19;10157532;29;20051;-66
2023/04/06 18:06:12;;;;;;;9.50;3.92;;;;;;;13.85;33.58;100389.47;10169468;29;20057;-73
2023/04/06 18:11:17;;;;;;;3.15;1.48;;;;;;;13.64;34.07;100397.59;10152148;29;20481;-71
2023/04/06 18:16:19;;;;;;;2.17;1.10;;;;;;;13.49;34.88;100398.53;10156558;29;20052;-73
2023/04/06 18:21:21;;;;;;;4.53;1.55;;;;;;;13.46;35.02;100403.47;10148704;29;20076;-73
2023/04/06 18:26:24;;;;;;;3.80;1.77;;;;;;;13.54;35.32;100407.91;10152628;29;20145;-72
2023/04/06 18:31:25;;;;;;;3.33;1.98;;;;;;;13.39;35.55;100414.22;10157641;29;20681;-71
2023/04/06 18:36:27;;;;;;;4.63;2.22;;;;;;;13.43;36.20;100415.50;10159735;29;20053;-72
2023/04/06 18:41:28;;;;;;;5.00;2.25;;;;;;;13.34;36.69;100430.16;10183531;29;20471;-70
2023/04/06 18:46:29;;;;;;;3.58;2.05;;;;;;;12.87;38.44;100428.75;10181874;29;20140;-72
2023/04/06 18:51:31;;;;;;;5.00;2.60;;;;;;;12.81;38.98;100435.75;10194754;28;20056;-71
2023/04/06 18:56:33;;;;;;;5.95;2.80;;;;;;;12.82;39.63;100442.81;10193887;29;20081;-71
2023/04/06 19:01:34;;;;;;;7.72;4.53;;;;;;;12.47;41.50;100455.22;10195150;29;20040;-71
2023/04/06 19:06:35;;;;;;;6.25;3.28;;;;;;;12.14;43.29;100465.50;10190201;29;20416;-69
2023/04/06 19:11:37;;;;;;;4.43;2.75;;;;;;;11.80;45.55;100470.31;10189613;28;20032;-71
2023/04/06 19:16:41;;;;;;;6.22;3.05;;;;;;;11.35;47.23;100473.84;10190499;28;20077;-71
2023/04/06 19:21:42;;;;;;;6.28;3.45;;;;;;;11.03;49.75;100489.16;10192881;29;20028;-70
2023/04/06 19:32:01;;;;;;;6.57;3.65;;;;;;;10.64;51.62;100485.47;10279542;23;20135;-72
2023/04/06 19:37:03;;;;;;;7.30;2.88;;;;;;;10.44;52.58;100479.63;10135865;29;20140;-72
2023/04/06 19:42:05;;;;;;;7.07;3.47;;;;;;;10.34;53.42;100491.56;10124948;29;20052;-68
2023/04/06 19:47:06;;;;;;;6.43;3.50;;;;;;;10.23;54.30;100476.59;10109482;29;20073;-67
2023/04/06 19:52:08;;;;;;;9.80;5.03;;;;;;;10.28;54.58;100476.94;10120848;29;20072;-65
2023/04/06 19:57:10;;;;;;;6.90;4.00;;;;;;;10.25;55.54;100483.50;10121806;29;20049;-67
2023/04/06 20:02:11;;;;;;;6.38;4.10;;;;;;;10.23;55.96;100480.16;10131781;29;20068;-66
2023/04/06 20:07:13;;;;;;;7.53;4.45;;;;;;;10.19;56.88;100486.00;10122832;29;20131;-66
2023/04/06 20:12:14;;;;;;;6.28;4.57;;;;;;;10.26;57.02;100487.84;10123089;29;20136;-66
2023/04/06 20:17:16;;;;;;;8.55;4.43;;;;;;;10.24;57.56;100483.66;10137113;29;20107;-66
2023/04/06 20:22:17;;;;;;;7.82;5.47;;;;;;;10.15;58.18;100488.22;10126818;29;20040;-67
2023/04/06 20:27:18;;;;;;;9.27;4.82;;;;;;;10.04;59.27;100483.19;10125430;29;20096;-66
2023/04/06 20:32:20;;;;;;;11.02;4.88;;;;;;;9.99;59.81;100486.41;10125226;29;20120;-66
2023/04/06 20:37:23;;;;;;;8.80;5.43;;;;;;;9.87;60.86;100480.53;10127201;29;20275;-66
2023/04/06 20:42:24;;;;;;;9.15;5.63;;;;;;;9.78;61.62;100475.31;10123517;29;20048;-66
2023/04/06 20:47:26;;;;;;;9.77;5.45;;;;;;;9.68;62.42;100478.16;10128172;29;20052;-65
2023/04/06 20:52:27;;;;;;;9.68;6.43;;;;;;;9.72;62.80;100480.34;10128313;29;20064;-64
2023/04/06 20:57:29;;;;;;;10.43;6.30;;;;;;;9.75;63.08;100481.00;10128177;29;20075;-65
2023/04/06 21:02:31;;;;;;;10.07;6.47;;;;;;;9.82;63.06;100479.34;10122827;29;20124;-63
2023/04/06 21:07:33;;;;;;;12.88;6.65;;;;;;;9.80;63.91;100476.00;10122792;29;20623;-65
2023/04/06 21:12:34;;;;;;;13.05;6.30;;;;;;;9.71;64.31;100478.66;10131987;29;20504;-65
2023/04/06 21:17:36;;;;;;;10.75;6.93;;;;;;;9.67;64.80;100463.88;10124456;29;20488;-64
2023/04/06 21:22:38;;;;;;;12.57;6.65;;;;;;;9.65;65.24;100463.22;10123792;29;20836;-63
2023/04/06 21:27:39;;;;;;;11.68;6.97;;;;;;;9.53;65.58;100451.97;10120462;29;20136;-64
2023/04/06 21:32:41;;;;;;;16.55;8.38;;;;;;;9.62;65.84;100452.00;10115112;29;20163;-66
2023/04/06 21:42:59;;;;;;;12.70;7.22;;;;;;;9.47;66.10;100443.75;10950295;23;20036;-91
2023/04/06 21:48:01;;;;;;;16.42;7.88;;;;;;;9.48;66.62;100432.88;10189899;28;20088;-93
2023/04/06 21:53:04;;;;;;;12.77;7.68;;;;;;;9.40;67.23;100434.69;10175699;28;20066;-92
2023/04/06 21:58:06;;;;;;;17.02;8.70;;;;;;;9.40;67.22;100430.19;10171149;28;20092;-91
2023/04/06 22:03:09;;;;;;;15.45;8.73;;;;;;;9.39;67.76;100425.81;10171383;28;20087;-90
2023/04/06 22:08:11;;;;;;;14.10;8.48;;;;;;;9.32;67.76;100425.66;10174965;28;20064;-91
2023/04/06 22:13:27;;;;;;;16.40;9.20;;;;;;;9.16;68.22;100417.56;10158116;28;20052;-91
2023/04/06 22:35:24;;;;;;;19.55;10.57;;;;;;;9.36;68.17;100403.84;10233804;28;20059;-92
2023/04/06 22:40:28;;;;;;;18.27;10.88;;;;;;;9.26;68.13;100402.19;10209068;28;20051;-93
2023/04/06 22:45:32;;;;;;;21.13;11.82;;;;;;;9.30;68.27;100398.16;10207245;28;20036;-92
2023/04/06 22:50:34;;;;;;;25.48;12.10;;;;;;;9.41;68.11;100385.41;10237734;28;20103;-93
2023/04/06 22:55:40;;;;;;;21.92;11.45;;;;;;;9.41;68.62;100385.41;10156873;23;20112;-63
2023/04/06 23:00:42;;;;;;;22.42;11.50;;;;;;;9.30;69.09;100381.19;10140366;29;20096;-67
2023/04/06 23:05:44;;;;;;;20.05;11.70;;;;;;;9.38;68.81;100378.53;10388977;23;20068;-91
2023/04/06 23:10:46;;;;;;;21.73;12.38;;;;;;;9.41;68.71;100372.00;10230835;29;20062;-89
2023/04/06 23:15:49;;;;;;;28.42;13.20;;;;;;;9.50;69.03;100366.47;10207105;29;20091;-91
2023/04/06 23:20:51;;;;;;;26.85;13.57;;;;;;;9.56;68.91;100362.25;10214558;28;20076;-91
2023/04/06 23:25:52;;;;;;;30.73;15.23;;;;;;;9.55;69.50;100365.94;10176884;23;20054;-65
2023/04/06 23:30:54;;;;;;;23.27;13.15;;;;;;;9.56;69.50;100361.41;10151170;29;20084;-67
2023/04/06 23:35:55;;;;;;;29.80;14.25;;;;;;;9.58;69.42;100362.06;10134562;29;20056;-69